sensor_id;sensor_type;location;lat;lon;timestamp;P1;durP1;ratioP1;P2;durP2;ratioP2
57441;SDS011;43284;47.042;15.498;2023-04-24T00:01:38;6.95;;;4.47;;
57441;SDS011;43284;47.042;15.498;2023-04-24T00:04:05;8.95;;;4.38;;
57441;SDS011;43284;47.042;15.498;2023-04-24T00:06:32;8.85;;;5.35;;
57441;SDS011;43284;47.042;15.498;2023-04-24T00:09:01;7.15;;;4.90;;
57441;SDS011;43284;47.042;15.498;2023-04-24T00:11:28;8.68;;;5.00;;
57441;SDS011;43284;47.042;15.498;2023-04-24T00:13:54;8.90;;;5.15;;
57441;SDS011;43284;47.042;15.498;2023-04-24T00:16:20;17.13;;;5.82;;
57441;SDS011;43284;47.042;15.498;2023-04-24T00:18:46;9.85;;;6.10;;
57441;SDS011;43284;47.042;15.498;2023-04-24T00:21:13;11.82;;;6.20;;
57441;SDS011;43284;47.042;15.498;2023-04-24T00:23:38;8.98;;;5.30;;
57441;SDS011;43284;47.042;15.498;2023-04-24T00:26:04;11.23;;;5.40;;
57441;SDS011;43284;47.042;15.498;2023-04-24T00:28:30;6.82;;;4.90;;
57441;SDS011;43284;47.042;15.498;2023-04-24T00:30:55;6.88;;;4.68;;
57441;SDS011;43284;47.042;15.498;2023-04-24T00:33:21;8.02;;;5.35;;
57441;SDS011;43284;47.042;15.498;2023-04-24T00:35:46;7.50;;;4.10;;
57441;SDS011;43284;47.042;15.498;2023-04-24T00:38:12;7.72;;;4.78;;
57441;SDS011;43284;47.042;15.498;2023-04-24T00:40:37;6.63;;;4.18;;
57441;SDS011;43284;47.042;15.498;2023-04-24T00:43:03;9.18;;;4.65;;
57441;SDS011;43284;47.042;15.498;2023-04-24T00:45:28;7.65;;;3.97;;
57441;SDS011;43284;47.042;15.498;2023-04-24T00:47:56;6.15;;;4.10;;
57441;SDS011;43284;47.042;15.498;2023-04-24T00:50:21;6.50;;;4.85;;
57441;SDS011;43284;47.042;15.498;2023-04-24T00:52:48;9.80;;;4.65;;
57441;SDS011;43284;47.042;15.498;2023-04-24T00:55:14;7.43;;;4.72;;
57441;SDS011;43284;47.042;15.498;2023-04-24T00:57:40;5.97;;;3.95;;
57441;SDS011;43284;47.042;15.498;2023-04-24T01:00:06;10.50;;;4.22;;
57441;SDS011;43284;47.042;15.498;2023-04-24T01:02:35;11.75;;;4.68;;
57441;SDS011;43284;47.042;15.498;2023-04-24T01:05:05;11.02;;;3.83;;
57441;SDS011;43284;47.042;15.498;2023-04-24T01:07:32;8.48;;;4.75;;
57441;SDS011;43284;47.042;15.498;2023-04-24T01:09:58;8.50;;;5.03;;
57441;SDS011;43284;47.042;15.498;2023-04-24T01:12:23;7.43;;;5.28;;
57441;SDS011;43284;47.042;15.498;2023-04-24T01:14:49;9.88;;;5.72;;
57441;SDS011;43284;47.042;15.498;2023-04-24T01:17:15;10.20;;;5.40;;
57441;SDS011;43284;47.042;15.498;2023-04-24T01:19:40;7.85;;;5.13;;
57441;SDS011;43284;47.042;15.498;2023-04-24T01:22:12;8.52;;;4.63;;
57441;SDS011;43284;47.042;15.498;2023-04-24T01:24:42;8.82;;;5.25;;
57441;SDS011;43284;47.042;15.498;2023-04-24T01:27:09;11.73;;;5.63;;
57441;SDS011;43284;47.042;15.498;2023-04-24T01:29:36;12.63;;;5.05;;
57441;SDS011;43284;47.042;15.498;2023-04-24T01:32:02;8.10;;;4.47;;
57441;SDS011;43284;47.042;15.498;2023-04-24T01:34:28;7.30;;;4.57;;
57441;SDS011;43284;47.042;15.498;2023-04-24T01:36:54;11.30;;;4.53;;
57441;SDS011;43284;47.042;15.498;2023-04-24T01:39:21;10.90;;;4.88;;
57441;SDS011;43284;47.042;15.498;2023-04-24T01:41:48;8.90;;;5.07;;
57441;SDS011;43284;47.042;15.498;2023-04-24T01:44:15;7.75;;;4.90;;
57441;SDS011;43284;47.042;15.498;2023-04-24T01:46:41;9.27;;;4.90;;
57441;SDS011;43284;47.042;15.498;2023-04-24T01:49:07;9.32;;;5.47;;
57441;SDS011;43284;47.042;15.498;2023-04-24T01:51:32;8.48;;;5.72;;
57441;SDS011;43284;47.042;15.498;2023-04-24T01:53:58;10.63;;;5.80;;
57441;SDS011;43284;47.042;15.498;2023-04-24T01:56:23;9.45;;;4.72;;
57441;SDS011;43284;47.042;15.498;2023-04-24T01:58:50;5.28;;;4.05;;
57441;SDS011;43284;47.042;15.498;2023-04-24T02:01:19;7.88;;;4.03;;
57441;SDS011;43284;47.042;15.498;2023-04-24T02:03:45;6.25;;;4.53;;
57441;SDS011;43284;47.042;15.498;2023-04-24T02:06:11;8.73;;;4.75;;
57441;SDS011;43284;47.042;15.498;2023-04-24T02:08:37;6.75;;;4.53;;
57441;SDS011;43284;47.042;15.498;2023-04-24T02:11:02;8.13;;;4.43;;
57441;SDS011;43284;47.042;15.498;2023-04-24T02:13:28;8.45;;;5.25;;
57441;SDS011;43284;47.042;15.498;2023-04-24T02:15:54;8.32;;;5.13;;
57441;SDS011;43284;47.042;15.498;2023-04-24T02:18:19;8.02;;;4.88;;
57441;SDS011;43284;47.042;15.498;2023-04-24T02:20:45;8.70;;;4.80;;
57441;SDS011;43284;47.042;15.498;2023-04-24T02:23:11;12.50;;;5.07;;
57441;SDS011;43284;47.042;15.498;2023-04-24T02:25:36;10.07;;;4.50;;
57441;SDS011;43284;47.042;15.498;2023-04-24T02:28:02;7.13;;;4.95;;
57441;SDS011;43284;47.042;15.498;2023-04-24T02:30:28;9.95;;;4.85;;
57441;SDS011;43284;47.042;15.498;2023-04-24T02:32:53;8.50;;;4.85;;
57441;SDS011;43284;47.042;15.498;2023-04-24T02:35:19;8.48;;;5.25;;
57441;SDS011;43284;47.042;15.498;2023-04-24T02:37:45;9.13;;;5.30;;
57441;SDS011;43284;47.042;15.498;2023-04-24T02:40:10;10.13;;;4.85;;
57441;SDS011;43284;47.042;15.498;2023-04-24T02:42:36;7.53;;;4.88;;
57441;SDS011;43284;47.042;15.498;2023-04-24T02:45:01;7.32;;;4.55;;
57441;SDS011;43284;47.042;15.498;2023-04-24T02:47:27;7.95;;;5.05;;
57441;SDS011;43284;47.042;15.498;2023-04-24T02:49:52;7.55;;;5.00;;
57441;SDS011;43284;47.042;15.498;2023-04-24T02:52:18;7.03;;;4.30;;
57441;SDS011;43284;47.042;15.498;2023-04-24T02:54:44;7.97;;;4.85;;
57441;SDS011;43284;47.042;15.498;2023-04-24T02:57:09;6.95;;;5.10;;
57441;SDS011;43284;47.042;15.498;2023-04-24T02:59:35;7.22;;;4.70;;
57441;SDS011;43284;47.042;15.498;2023-04-24T03:02:00;8.63;;;5.13;;
57441;SDS011;43284;47.042;15.498;2023-04-24T03:04:26;7.28;;;4.80;;
57441;SDS011;43284;47.042;15.498;2023-04-24T03:06:51;9.25;;;5.40;;
57441;SDS011;43284;47.042;15.498;2023-04-24T03:09:19;9.77;;;5.35;;
57441;SDS011;43284;47.042;15.498;2023-04-24T03:11:46;6.60;;;4.35;;
57441;SDS011;43284;47.042;15.498;2023-04-24T03:14:11;7.70;;;4.93;;
57441;SDS011;43284;47.042;15.498;2023-04-24T03:16:37;8.20;;;4.68;;
57441;SDS011;43284;47.042;15.498;2023-04-24T03:19:02;6.38;;;4.35;;
57441;SDS011;43284;47.042;15.498;2023-04-24T03:21:28;8.43;;;4.43;;
57441;SDS011;43284;47.042;15.498;2023-04-24T03:23:53;8.52;;;4.75;;
57441;SDS011;43284;47.042;15.498;2023-04-24T03:26:19;7.47;;;4.70;;
57441;SDS011;43284;47.042;15.498;2023-04-24T03:28:45;7.50;;;4.43;;
57441;SDS011;43284;47.042;15.498;2023-04-24T03:31:10;7.40;;;4.95;;
57441;SDS011;43284;47.042;15.498;2023-04-24T03:33:36;7.55;;;4.82;;
57441;SDS011;43284;47.042;15.498;2023-04-24T03:36:01;6.85;;;4.53;;
57441;SDS011;43284;47.042;15.498;2023-04-24T03:38:27;8.68;;;4.78;;
57441;SDS011;43284;47.042;15.498;2023-04-24T03:40:53;9.05;;;4.82;;
57441;SDS011;43284;47.042;15.498;2023-04-24T03:43:18;7.85;;;4.22;;
57441;SDS011;43284;47.042;15.498;2023-04-24T03:45:44;6.53;;;4.20;;
57441;SDS011;43284;47.042;15.498;2023-04-24T03:48:09;7.95;;;4.10;;
57441;SDS011;43284;47.042;15.498;2023-04-24T03:50:35;8.55;;;4.45;;
57441;SDS011;43284;47.042;15.498;2023-04-24T03:53:00;7.55;;;4.45;;
57441;SDS011;43284;47.042;15.498;2023-04-24T03:55:26;9.60;;;4.70;;
57441;SDS011;43284;47.042;15.498;2023-04-24T03:57:51;8.40;;;4.40;;
57441;SDS011;43284;47.042;15.498;2023-04-24T04:00:17;7.43;;;4.38;;
57441;SDS011;43284;47.042;15.498;2023-04-24T04:02:43;8.73;;;5.70;;
57441;SDS011;43284;47.042;15.498;2023-04-24T04:05:09;8.60;;;5.18;;
57441;SDS011;43284;47.042;15.498;2023-04-24T04:07:34;7.63;;;4.40;;
57441;SDS011;43284;47.042;15.498;2023-04-24T04:10:00;9.40;;;4.93;;
57441;SDS011;43284;47.042;15.498;2023-04-24T04:12:25;9.30;;;4.25;;
57441;SDS011;43284;47.042;15.498;2023-04-24T04:14:51;9.48;;;5.05;;
57441;SDS011;43284;47.042;15.498;2023-04-24T04:17:17;7.25;;;4.68;;
57441;SDS011;43284;47.042;15.498;2023-04-24T04:19:42;11.32;;;6.32;;
57441;SDS011;43284;47.042;15.498;2023-04-24T04:22:08;11.68;;;7.03;;
57441;SDS011;43284;47.042;15.498;2023-04-24T04:24:33;10.65;;;6.97;;
57441;SDS011;43284;47.042;15.498;2023-04-24T04:27:03;14.00;;;7.03;;
57441;SDS011;43284;47.042;15.498;2023-04-24T04:29:30;8.30;;;5.30;;
57441;SDS011;43284;47.042;15.498;2023-04-24T04:31:56;11.90;;;6.45;;
57441;SDS011;43284;47.042;15.498;2023-04-24T04:34:22;9.93;;;5.25;;
57441;SDS011;43284;47.042;15.498;2023-04-24T04:36:48;10.48;;;6.25;;
57441;SDS011;43284;47.042;15.498;2023-04-24T04:39:15;13.02;;;7.35;;
57441;SDS011;43284;47.042;15.498;2023-04-24T04:41:41;12.07;;;6.88;;
57441;SDS011;43284;47.042;15.498;2023-04-24T04:44:07;11.25;;;5.68;;
57441;SDS011;43284;47.042;15.498;2023-04-24T04:46:33;10.27;;;5.78;;
57441;SDS011;43284;47.042;15.498;2023-04-24T04:49:02;8.80;;;5.53;;
57441;SDS011;43284;47.042;15.498;2023-04-24T04:51:28;11.68;;;6.15;;
57441;SDS011;43284;47.042;15.498;2023-04-24T04:53:54;11.02;;;6.22;;
57441;SDS011;43284;47.042;15.498;2023-04-24T04:56:20;10.38;;;5.78;;
57441;SDS011;43284;47.042;15.498;2023-04-24T04:58:45;12.75;;;7.30;;
57441;SDS011;43284;47.042;15.498;2023-04-24T05:01:11;10.80;;;6.05;;
57441;SDS011;43284;47.042;15.498;2023-04-24T05:03:36;14.70;;;6.97;;
57441;SDS011;43284;47.042;15.498;2023-04-24T05:06:02;15.45;;;6.95;;
57441;SDS011;43284;47.042;15.498;2023-04-24T05:08:27;13.38;;;7.80;;
57441;SDS011;43284;47.042;15.498;2023-04-24T05:10:53;16.55;;;9.75;;
57441;SDS011;43284;47.042;15.498;2023-04-24T05:13:19;21.60;;;10.52;;
57441;SDS011;43284;47.042;15.498;2023-04-24T05:15:45;19.95;;;9.70;;
57441;SDS011;43284;47.042;15.498;2023-04-24T05:18:11;18.52;;;9.93;;
57441;SDS011;43284;47.042;15.498;2023-04-24T05:20:36;22.38;;;11.13;;
57441;SDS011;43284;47.042;15.498;2023-04-24T05:23:02;17.38;;;9.82;;
57441;SDS011;43284;47.042;15.498;2023-04-24T05:25:27;16.98;;;9.45;;
57441;SDS011;43284;47.042;15.498;2023-04-24T05:27:53;21.95;;;9.07;;
57441;SDS011;43284;47.042;15.498;2023-04-24T05:30:18;15.20;;;9.02;;
57441;SDS011;43284;47.042;15.498;2023-04-24T05:32:44;17.65;;;9.80;;
57441;SDS011;43284;47.042;15.498;2023-04-24T05:35:11;15.98;;;8.98;;
57441;SDS011;43284;47.042;15.498;2023-04-24T05:37:36;13.98;;;8.52;;
57441;SDS011;43284;47.042;15.498;2023-04-24T05:40:02;18.65;;;9.02;;
57441;SDS011;43284;47.042;15.498;2023-04-24T05:42:30;16.73;;;7.93;;
57441;SDS011;43284;47.042;15.498;2023-04-24T05:44:56;17.17;;;8.85;;
57441;SDS011;43284;47.042;15.498;2023-04-24T05:47:21;16.63;;;7.85;;
57441;SDS011;43284;47.042;15.498;2023-04-24T05:49:47;18.45;;;8.23;;
57441;SDS011;43284;47.042;15.498;2023-04-24T05:52:13;15.95;;;8.57;;
57441;SDS011;43284;47.042;15.498;2023-04-24T05:54:39;20.70;;;8.80;;
57441;SDS011;43284;47.042;15.498;2023-04-24T05:57:04;15.60;;;8.70;;
57441;SDS011;43284;47.042;15.498;2023-04-24T05:59:36;15.70;;;7.93;;
57441;SDS011;43284;47.042;15.498;2023-04-24T06:02:05;16.53;;;8.67;;
57441;SDS011;43284;47.042;15.498;2023-04-24T06:04:31;15.93;;;8.25;;
57441;SDS011;43284;47.042;15.498;2023-04-24T06:06:58;21.67;;;8.52;;
57441;SDS011;43284;47.042;15.498;2023-04-24T06:09:23;18.38;;;8.73;;
57441;SDS011;43284;47.042;15.498;2023-04-24T06:11:49;16.33;;;9.77;;
57441;SDS011;43284;47.042;15.498;2023-04-24T06:14:18;18.95;;;9.45;;
57441;SDS011;43284;47.042;15.498;2023-04-24T06:16:43;17.42;;;8.88;;
57441;SDS011;43284;47.042;15.498;2023-04-24T06:19:09;19.88;;;9.73;;
57441;SDS011;43284;47.042;15.498;2023-04-24T06:21:35;18.65;;;8.57;;
57441;SDS011;43284;47.042;15.498;2023-04-24T06:24:00;18.67;;;8.82;;
57441;SDS011;43284;47.042;15.498;2023-04-24T06:26:26;12.57;;;8.57;;
57441;SDS011;43284;47.042;15.498;2023-04-24T06:28:52;18.38;;;9.60;;
57441;SDS011;43284;47.042;15.498;2023-04-24T06:31:21;19.42;;;10.32;;
57441;SDS011;43284;47.042;15.498;2023-04-24T06:33:48;15.77;;;10.18;;
57441;SDS011;43284;47.042;15.498;2023-04-24T06:36:14;17.70;;;10.60;;
57441;SDS011;43284;47.042;15.498;2023-04-24T06:38:40;18.17;;;9.68;;
57441;SDS011;43284;47.042;15.498;2023-04-24T06:41:06;15.88;;;8.77;;
57441;SDS011;43284;47.042;15.498;2023-04-24T06:43:32;16.08;;;9.75;;
57441;SDS011;43284;47.042;15.498;2023-04-24T06:45:58;16.80;;;8.55;;
57441;SDS011;43284;47.042;15.498;2023-04-24T06:48:24;24.40;;;9.10;;
57441;SDS011;43284;47.042;15.498;2023-04-24T06:50:50;14.57;;;8.90;;
57441;SDS011;43284;47.042;15.498;2023-04-24T06:53:16;13.48;;;7.97;;
57441;SDS011;43284;47.042;15.498;2023-04-24T06:55:42;17.48;;;8.90;;
57441;SDS011;43284;47.042;15.498;2023-04-24T06:58:09;14.18;;;8.20;;
57441;SDS011;43284;47.042;15.498;2023-04-24T07:00:36;17.95;;;8.25;;
57441;SDS011;43284;47.042;15.498;2023-04-24T07:03:01;13.60;;;7.97;;
57441;SDS011;43284;47.042;15.498;2023-04-24T07:05:28;14.27;;;7.72;;
57441;SDS011;43284;47.042;15.498;2023-04-24T07:07:54;10.73;;;6.18;;
57441;SDS011;43284;47.042;15.498;2023-04-24T07:10:19;12.77;;;6.65;;
57441;SDS011;43284;47.042;15.498;2023-04-24T07:12:46;13.35;;;8.18;;
57441;SDS011;43284;47.042;15.498;2023-04-24T07:15:12;12.75;;;7.82;;
57441;SDS011;43284;47.042;15.498;2023-04-24T07:17:37;13.95;;;8.20;;
57441;SDS011;43284;47.042;15.498;2023-04-24T07:20:03;14.63;;;7.70;;
57441;SDS011;43284;47.042;15.498;2023-04-24T07:22:32;20.30;;;8.88;;
57441;SDS011;43284;47.042;15.498;2023-04-24T07:24:57;15.93;;;9.25;;
57441;SDS011;43284;47.042;15.498;2023-04-24T07:27:22;18.52;;;11.38;;
57441;SDS011;43284;47.042;15.498;2023-04-24T07:29:48;19.30;;;10.63;;
57441;SDS011;43284;47.042;15.498;2023-04-24T07:32:13;20.15;;;10.43;;
57441;SDS011;43284;47.042;15.498;2023-04-24T07:34:39;16.65;;;9.25;;
57441;SDS011;43284;47.042;15.498;2023-04-24T07:37:05;17.88;;;9.23;;
57441;SDS011;43284;47.042;15.498;2023-04-24T07:39:31;19.98;;;9.90;;
57441;SDS011;43284;47.042;15.498;2023-04-24T07:41:56;19.45;;;10.10;;
57441;SDS011;43284;47.042;15.498;2023-04-24T07:44:24;19.63;;;10.52;;
57441;SDS011;43284;47.042;15.498;2023-04-24T07:46:49;20.27;;;11.32;;
57441;SDS011;43284;47.042;15.498;2023-04-24T07:49:15;17.73;;;10.05;;
57441;SDS011;43284;47.042;15.498;2023-04-24T07:51:40;22.10;;;10.98;;
57441;SDS011;43284;47.042;15.498;2023-04-24T07:54:06;26.42;;;10.55;;
57441;SDS011;43284;47.042;15.498;2023-04-24T07:56:32;22.67;;;10.98;;
57441;SDS011;43284;47.042;15.498;2023-04-24T07:58:58;20.42;;;10.32;;
57441;SDS011;43284;47.042;15.498;2023-04-24T08:01:24;20.20;;;11.00;;
57441;SDS011;43284;47.042;15.498;2023-04-24T08:03:50;23.33;;;11.82;;
57441;SDS011;43284;47.042;15.498;2023-04-24T08:06:16;20.35;;;12.07;;
57441;SDS011;43284;47.042;15.498;2023-04-24T08:08:42;22.13;;;12.80;;
57441;SDS011;43284;47.042;15.498;2023-04-24T08:11:07;23.45;;;12.00;;
57441;SDS011;43284;47.042;15.498;2023-04-24T08:13:33;21.27;;;11.93;;
57441;SDS011;43284;47.042;15.498;2023-04-24T08:15:58;24.92;;;12.25;;
57441;SDS011;43284;47.042;15.498;2023-04-24T08:18:23;21.60;;;12.07;;
57441;SDS011;43284;47.042;15.498;2023-04-24T08:20:49;22.48;;;10.88;;
57441;SDS011;43284;47.042;15.498;2023-04-24T08:23:15;22.20;;;11.55;;
57441;SDS011;43284;47.042;15.498;2023-04-24T08:25:40;23.65;;;11.38;;
57441;SDS011;43284;47.042;15.498;2023-04-24T08:28:06;21.70;;;11.82;;
57441;SDS011;43284;47.042;15.498;2023-04-24T08:30:34;17.45;;;11.15;;
57441;SDS011;43284;47.042;15.498;2023-04-24T08:32:59;23.38;;;11.15;;
57441;SDS011;43284;47.042;15.498;2023-04-24T08:35:25;24.08;;;11.82;;
57441;SDS011;43284;47.042;15.498;2023-04-24T08:37:51;24.20;;;11.82;;
57441;SDS011;43284;47.042;15.498;2023-04-24T08:40:18;26.85;;;11.40;;
57441;SDS011;43284;47.042;15.498;2023-04-24T08:42:53;23.52;;;11.68;;
57441;SDS011;43284;47.042;15.498;2023-04-24T08:45:19;27.48;;;12.32;;
57441;SDS011;43284;47.042;15.498;2023-04-24T08:47:45;26.00;;;13.30;;
57441;SDS011;43284;47.042;15.498;2023-04-24T08:50:11;24.00;;;11.45;;
57441;SDS011;43284;47.042;15.498;2023-04-24T08:52:37;30.30;;;14.02;;
57441;SDS011;43284;47.042;15.498;2023-04-24T08:55:03;23.20;;;13.27;;
57441;SDS011;43284;47.042;15.498;2023-04-24T08:57:29;29.08;;;12.48;;
57441;SDS011;43284;47.042;15.498;2023-04-24T08:59:56;24.02;;;13.20;;
57441;SDS011;43284;47.042;15.498;2023-04-24T09:02:23;26.02;;;12.57;;
57441;SDS011;43284;47.042;15.498;2023-04-24T09:04:49;25.60;;;12.82;;
57441;SDS011;43284;47.042;15.498;2023-04-24T09:07:15;23.52;;;12.18;;
57441;SDS011;43284;47.042;15.498;2023-04-24T09:09:43;25.38;;;13.02;;
57441;SDS011;43284;47.042;15.498;2023-04-24T09:12:09;21.08;;;12.52;;
57441;SDS011;43284;47.042;15.498;2023-04-24T09:14:35;26.77;;;13.85;;
57441;SDS011;43284;47.042;15.498;2023-04-24T09:17:04;25.33;;;11.38;;
57441;SDS011;43284;47.042;15.498;2023-04-24T09:19:31;24.15;;;13.68;;
57441;SDS011;43284;47.042;15.498;2023-04-24T09:21:56;24.63;;;12.82;;
57441;SDS011;43284;47.042;15.498;2023-04-24T09:24:22;26.67;;;12.45;;
57441;SDS011;43284;47.042;15.498;2023-04-24T09:26:48;25.30;;;14.35;;
57441;SDS011;43284;47.042;15.498;2023-04-24T09:29:22;23.67;;;12.93;;
57441;SDS011;43284;47.042;15.498;2023-04-24T09:31:47;27.95;;;13.35;;
57441;SDS011;43284;47.042;15.498;2023-04-24T09:34:13;22.05;;;12.02;;
57441;SDS011;43284;47.042;15.498;2023-04-24T09:36:39;22.98;;;12.20;;
57441;SDS011;43284;47.042;15.498;2023-04-24T09:39:07;20.33;;;9.90;;
57441;SDS011;43284;47.042;15.498;2023-04-24T09:41:47;16.05;;;9.88;;
57441;SDS011;43284;47.042;15.498;2023-04-24T09:44:17;12.15;;;7.18;;
57441;SDS011;43284;47.042;15.498;2023-04-24T09:46:50;16.92;;;7.45;;
57441;SDS011;43284;47.042;15.498;2023-04-24T09:49:22;11.10;;;6.60;;
57441;SDS011;43284;47.042;15.498;2023-04-24T09:51:48;10.30;;;4.90;;
57441;SDS011;43284;47.042;15.498;2023-04-24T09:54:22;5.43;;;3.80;;
57441;SDS011;43284;47.042;15.498;2023-04-24T09:56:49;8.00;;;3.38;;
57441;SDS011;43284;47.042;15.498;2023-04-24T09:59:16;4.70;;;2.75;;
57441;SDS011;43284;47.042;15.498;2023-04-24T10:01:43;4.40;;;2.85;;
57441;SDS011;43284;47.042;15.498;2023-04-24T10:06:46;2.70;;;1.70;;
57441;SDS011;43284;47.042;15.498;2023-04-24T10:09:20;3.90;;;1.45;;
57441;SDS011;43284;47.042;15.498;2023-04-24T10:11:48;1.35;;;1.02;;
57441;SDS011;43284;47.042;15.498;2023-04-24T10:14:16;1.95;;;1.40;;
57441;SDS011;43284;47.042;15.498;2023-04-24T10:16:43;1.40;;;1.20;;
57441;SDS011;43284;47.042;15.498;2023-04-24T10:19:12;2.25;;;1.10;;
57441;SDS011;43284;47.042;15.498;2023-04-24T10:21:38;1.65;;;1.30;;
57441;SDS011;43284;47.042;15.498;2023-04-24T10:24:07;2.17;;;1.30;;
57441;SDS011;43284;47.042;15.498;2023-04-24T10:26:34;5.18;;;1.10;;
57441;SDS011;43284;47.042;15.498;2023-04-24T10:29:00;3.47;;;1.38;;
57441;SDS011;43284;47.042;15.498;2023-04-24T10:31:27;1.92;;;1.35;;
57441;SDS011;43284;47.042;15.498;2023-04-24T10:33:56;1.52;;;1.30;;
57441;SDS011;43284;47.042;15.498;2023-04-24T10:36:23;1.90;;;1.10;;
57441;SDS011;43284;47.042;15.498;2023-04-24T10:38:51;3.05;;;1.30;;
57441;SDS011;43284;47.042;15.498;2023-04-24T10:41:20;1.10;;;1.00;;
57441;SDS011;43284;47.042;15.498;2023-04-24T10:43:48;1.75;;;1.20;;
57441;SDS011;43284;47.042;15.498;2023-04-24T10:46:29;1.15;;;0.90;;
57441;SDS011;43284;47.042;15.498;2023-04-24T10:48:56;1.63;;;0.98;;
57441;SDS011;43284;47.042;15.498;2023-04-24T10:51:25;1.58;;;0.90;;
57441;SDS011;43284;47.042;15.498;2023-04-24T10:54:26;2.08;;;1.25;;
57441;SDS011;43284;47.042;15.498;2023-04-24T10:59:45;1.75;;;1.30;;
57441;SDS011;43284;47.042;15.498;2023-04-24T11:02:14;1.92;;;1.08;;
57441;SDS011;43284;47.042;15.498;2023-04-24T11:04:40;0.80;;;0.80;;
57441;SDS011;43284;47.042;15.498;2023-04-24T11:07:08;4.88;;;1.00;;
57441;SDS011;43284;47.042;15.498;2023-04-24T11:09:35;1.33;;;0.80;;
57441;SDS011;43284;47.042;15.498;2023-04-24T11:12:05;5.88;;;0.80;;
57441;SDS011;43284;47.042;15.498;2023-04-24T11:17:34;4.65;;;0.75;;
57441;SDS011;43284;47.042;15.498;2023-04-24T11:20:10;1.15;;;0.80;;
57441;SDS011;43284;47.042;15.498;2023-04-24T11:25:04;1.42;;;0.93;;
57441;SDS011;43284;47.042;15.498;2023-04-24T11:27:31;1.60;;;0.90;;
57441;SDS011;43284;47.042;15.498;2023-04-24T11:30:07;1.27;;;1.00;;
57441;SDS011;43284;47.042;15.498;2023-04-24T11:37:55;3.80;;;2.58;;
57441;SDS011;43284;47.042;15.498;2023-04-24T11:40:22;1.10;;;0.80;;
57441;SDS011;43284;47.042;15.498;2023-04-24T11:42:48;1.83;;;0.82;;
57441;SDS011;43284;47.042;15.498;2023-04-24T11:45:16;1.17;;;0.95;;
57441;SDS011;43284;47.042;15.498;2023-04-24T11:47:43;1.40;;;0.80;;
57441;SDS011;43284;47.042;15.498;2023-04-24T11:50:13;1.42;;;0.88;;
57441;SDS011;43284;47.042;15.498;2023-04-24T11:52:40;1.80;;;0.70;;
57441;SDS011;43284;47.042;15.498;2023-04-24T11:55:07;1.98;;;1.30;;
57441;SDS011;43284;47.042;15.498;2023-04-24T11:57:55;2.03;;;0.60;;
57441;SDS011;43284;47.042;15.498;2023-04-24T12:00:22;0.80;;;0.68;;
57441;SDS011;43284;47.042;15.498;2023-04-24T12:02:50;0.90;;;0.80;;
57441;SDS011;43284;47.042;15.498;2023-04-24T12:05:19;1.17;;;0.63;;
57441;SDS011;43284;47.042;15.498;2023-04-24T12:07:46;1.02;;;0.80;;
57441;SDS011;43284;47.042;15.498;2023-04-24T12:10:11;1.10;;;0.70;;
57441;SDS011;43284;47.042;15.498;2023-04-24T12:12:37;1.90;;;1.10;;
57441;SDS011;43284;47.042;15.498;2023-04-24T12:15:07;0.52;;;0.50;;
57441;SDS011;43284;47.042;15.498;2023-04-24T12:17:33;3.72;;;0.70;;
57441;SDS011;43284;47.042;15.498;2023-04-24T12:20:05;2.22;;;0.50;;
57441;SDS011;43284;47.042;15.498;2023-04-24T12:25:24;1.60;;;0.70;;
57441;SDS011;43284;47.042;15.498;2023-04-24T12:27:52;0.70;;;0.52;;
57441;SDS011;43284;47.042;15.498;2023-04-24T12:30:20;1.83;;;0.55;;
57441;SDS011;43284;47.042;15.498;2023-04-24T12:32:47;4.30;;;0.70;;
57441;SDS011;43284;47.042;15.498;2023-04-24T12:35:23;1.20;;;0.45;;
57441;SDS011;43284;47.042;15.498;2023-04-24T12:37:50;0.80;;;0.60;;
57441;SDS011;43284;47.042;15.498;2023-04-24T12:40:16;0.22;;;0.22;;
57441;SDS011;43284;47.042;15.498;2023-04-24T12:42:44;1.50;;;0.50;;
57441;SDS011;43284;47.042;15.498;2023-04-24T12:45:14;0.80;;;0.50;;
57441;SDS011;43284;47.042;15.498;2023-04-24T12:47:41;3.42;;;0.68;;
57441;SDS011;43284;47.042;15.498;2023-04-24T12:50:08;0.75;;;0.50;;
57441;SDS011;43284;47.042;15.498;2023-04-24T12:52:35;0.60;;;0.50;;
57441;SDS011;43284;47.042;15.498;2023-04-24T12:55:01;1.10;;;0.63;;
57441;SDS011;43284;47.042;15.498;2023-04-24T12:57:28;0.47;;;0.47;;
57441;SDS011;43284;47.042;15.498;2023-04-24T12:59:54;2.63;;;0.50;;
57441;SDS011;43284;47.042;15.498;2023-04-24T13:02:22;2.50;;;1.83;;
57441;SDS011;43284;47.042;15.498;2023-04-24T13:04:48;2.40;;;0.60;;
57441;SDS011;43284;47.042;15.498;2023-04-24T13:07:14;1.23;;;0.70;;
57441;SDS011;43284;47.042;15.498;2023-04-24T13:09:41;2.05;;;0.50;;
57441;SDS011;43284;47.042;15.498;2023-04-24T13:12:07;1.05;;;0.40;;
57441;SDS011;43284;47.042;15.498;2023-04-24T13:14:33;0.75;;;0.63;;
57441;SDS011;43284;47.042;15.498;2023-04-24T13:16:59;0.63;;;0.60;;
57441;SDS011;43284;47.042;15.498;2023-04-24T13:19:24;3.72;;;1.17;;
57441;SDS011;43284;47.042;15.498;2023-04-24T13:21:51;3.47;;;2.30;;
57441;SDS011;43284;47.042;15.498;2023-04-24T13:24:17;13.77;;;1.90;;
57441;SDS011;43284;47.042;15.498;2023-04-24T13:26:43;4.70;;;1.02;;
57441;SDS011;43284;47.042;15.498;2023-04-24T13:29:08;1.98;;;0.60;;
57441;SDS011;43284;47.042;15.498;2023-04-24T13:31:34;5.75;;;0.80;;
57441;SDS011;43284;47.042;15.498;2023-04-24T13:34:01;2.47;;;0.85;;
57441;SDS011;43284;47.042;15.498;2023-04-24T13:36:28;0.70;;;0.50;;
57441;SDS011;43284;47.042;15.498;2023-04-24T13:38:53;2.75;;;1.00;;
57441;SDS011;43284;47.042;15.498;2023-04-24T13:41:19;1.23;;;0.73;;
57441;SDS011;43284;47.042;15.498;2023-04-24T13:43:44;2.95;;;1.10;;
57441;SDS011;43284;47.042;15.498;2023-04-24T13:46:10;4.70;;;1.35;;
57441;SDS011;43284;47.042;15.498;2023-04-24T13:48:35;2.03;;;0.98;;
57441;SDS011;43284;47.042;15.498;2023-04-24T13:51:01;2.35;;;0.90;;
57441;SDS011;43284;47.042;15.498;2023-04-24T13:53:27;1.90;;;1.10;;
57441;SDS011;43284;47.042;15.498;2023-04-24T13:55:52;1.63;;;0.55;;
57441;SDS011;43284;47.042;15.498;2023-04-24T13:58:18;3.80;;;0.60;;
57441;SDS011;43284;47.042;15.498;2023-04-24T14:00:43;1.05;;;0.70;;
57441;SDS011;43284;47.042;15.498;2023-04-24T14:03:09;1.52;;;0.60;;
57441;SDS011;43284;47.042;15.498;2023-04-24T14:05:35;0.75;;;0.75;;
57441;SDS011;43284;47.042;15.498;2023-04-24T14:08:01;0.57;;;0.50;;
57441;SDS011;43284;47.042;15.498;2023-04-24T14:10:26;0.70;;;0.70;;
57441;SDS011;43284;47.042;15.498;2023-04-24T14:12:52;1.55;;;0.70;;
57441;SDS011;43284;47.042;15.498;2023-04-24T14:15:18;0.90;;;0.70;;
57441;SDS011;43284;47.042;15.498;2023-04-24T14:17:44;3.35;;;0.93;;
57441;SDS011;43284;47.042;15.498;2023-04-24T14:20:09;3.22;;;2.38;;
57441;SDS011;43284;47.042;15.498;2023-04-24T14:22:35;2.50;;;0.90;;
57441;SDS011;43284;47.042;15.498;2023-04-24T14:25:01;3.67;;;1.02;;
57441;SDS011;43284;47.042;15.498;2023-04-24T14:27:26;1.00;;;0.90;;
57441;SDS011;43284;47.042;15.498;2023-04-24T14:29:52;1.58;;;0.98;;
57441;SDS011;43284;47.042;15.498;2023-04-24T14:32:18;1.75;;;0.90;;
57441;SDS011;43284;47.042;15.498;2023-04-24T14:34:43;0.95;;;0.70;;
57441;SDS011;43284;47.042;15.498;2023-04-24T14:37:09;1.98;;;1.00;;
57441;SDS011;43284;47.042;15.498;2023-04-24T14:39:34;1.33;;;0.90;;
57441;SDS011;43284;47.042;15.498;2023-04-24T14:42:00;4.13;;;1.00;;